sensor_id;sensor_type;location;lat;lon;timestamp;pressure;altitude;pressure_sealevel;temperature;humidity
69574;BME280;62840;52.366;5.980;2023-01-25T00:01:44;103718.88;;;2.05;71.07
69574;BME280;62840;52.366;5.980;2023-01-25T00:04:12;103717.13;;;2.04;71.05
69574;BME280;62840;52.366;5.980;2023-01-25T00:06:37;103711.84;;;2.04;71.13
69574;BME280;62840;52.366;5.980;2023-01-25T00:09:04;103711.00;;;2.00;70.92
69574;BME280;62840;52.366;5.980;2023-01-25T00:11:32;103713.63;;;1.99;71.06
69574;BME280;62840;52.366;5.980;2023-01-25T00:13:58;103701.34;;;1.98;70.90
69574;BME280;62840;52.366;5.980;2023-01-25T00:16:24;103711.88;;;1.98;70.89
69574;BME280;62840;52.366;5.980;2023-01-25T00:18:50;103711.88;;;1.98;71.04
69574;BME280;62840;52.366;5.980;2023-01-25T00:21:17;103704.84;;;2.00;70.85
69574;BME280;62840;52.366;5.980;2023-01-25T00:23:44;103697.81;;;1.99;70.95
69574;BME280;62840;52.366;5.980;2023-01-25T00:26:10;103701.34;;;1.98;70.98
69574;BME280;62840;52.366;5.980;2023-01-25T00:28:38;103705.72;;;1.99;71.19
69574;BME280;62840;52.366;5.980;2023-01-25T00:31:06;103704.84;;;1.98;71.22
69574;BME280;62840;52.366;5.980;2023-01-25T00:33:43;103702.22;;;1.95;70.94
69574;BME280;62840;52.366;5.980;2023-01-25T00:36:32;103694.31;;;1.94;70.96
69574;BME280;62840;52.366;5.980;2023-01-25T00:39:04;103692.56;;;1.92;71.12
69574;BME280;62840;52.366;5.980;2023-01-25T00:41:31;103692.56;;;1.94;70.93
69574;BME280;62840;52.366;5.980;2023-01-25T00:44:00;103700.47;;;1.94;70.87
69574;BME280;62840;52.366;5.980;2023-01-25T00:46:26;103703.06;;;1.92;70.84
69574;BME280;62840;52.366;5.980;2023-01-25T00:48:52;103703.06;;;1.92;71.04
69574;BME280;62840;52.366;5.980;2023-01-25T00:51:18;103702.22;;;1.94;71.08
69574;BME280;62840;52.366;5.980;2023-01-25T00:53:44;103702.22;;;1.92;71.10
69574;BME280;62840;52.366;5.980;2023-01-25T00:56:10;103694.34;;;1.90;71.22
69574;BME280;62840;52.366;5.980;2023-01-25T00:58:36;103696.94;;;1.92;70.86
69574;BME280;62840;52.366;5.980;2023-01-25T01:01:04;103692.56;;;1.92;71.24
69574;BME280;62840;52.366;5.980;2023-01-25T01:03:30;103696.06;;;1.95;71.17
69574;BME280;62840;52.366;5.980;2023-01-25T01:06:00;103689.06;;;1.94;71.02
69574;BME280;62840;52.366;5.980;2023-01-25T01:08:27;103685.53;;;1.95;71.13
69574;BME280;62840;52.366;5.980;2023-01-25T01:10:58;103682.03;;;1.94;71.15
69574;BME280;62840;52.366;5.980;2023-01-25T01:13:24;103677.66;;;1.91;71.18
69574;BME280;62840;52.366;5.980;2023-01-25T01:15:50;103679.41;;;1.91;71.10
69574;BME280;62840;52.366;5.980;2023-01-25T01:18:18;103685.56;;;1.91;71.18
69574;BME280;62840;52.366;5.980;2023-01-25T01:20:47;103680.28;;;1.91;70.92
69574;BME280;62840;52.366;5.980;2023-01-25T01:23:14;103688.19;;;1.91;71.04
69574;BME280;62840;52.366;5.980;2023-01-25T01:25:40;103684.69;;;1.91;70.78
69574;BME280;62840;52.366;5.980;2023-01-25T01:28:05;103683.81;;;1.90;70.87
69574;BME280;62840;52.366;5.980;2023-01-25T01:30:31;103677.66;;;1.87;70.80
69574;BME280;62840;52.366;5.980;2023-01-25T01:32:57;103682.03;;;1.83;71.14
69574;BME280;62840;52.366;5.980;2023-01-25T01:35:27;103683.81;;;1.84;71.27
69574;BME280;62840;52.366;5.980;2023-01-25T01:37:53;103675.03;;;1.85;71.13
69574;BME280;62840;52.366;5.980;2023-01-25T01:40:19;103681.16;;;1.87;71.06
69574;BME280;62840;52.366;5.980;2023-01-25T01:42:58;103673.28;;;1.84;70.94
69574;BME280;62840;52.366;5.980;2023-01-25T01:45:51;103682.03;;;1.83;70.80
69574;BME280;62840;52.366;5.980;2023-01-25T01:48:22;103678.53;;;1.80;70.97
69574;BME280;62840;52.366;5.980;2023-01-25T01:51:02;103665.38;;;1.77;70.98
69574;BME280;62840;52.366;5.980;2023-01-25T01:53:35;103674.16;;;1.76;71.27
69574;BME280;62840;52.366;5.980;2023-01-25T01:56:10;103662.75;;;1.75;71.08
69574;BME280;62840;52.366;5.980;2023-01-25T01:58:41;103669.78;;;1.73;71.09
69574;BME280;62840;52.366;5.980;2023-01-25T02:01:10;103658.38;;;1.68;70.98
69574;BME280;62840;52.366;5.980;2023-01-25T02:03:36;103655.75;;;1.68;71.17
69574;BME280;62840;52.366;5.980;2023-01-25T02:06:11;103661.00;;;1.68;71.12
69574;BME280;62840;52.366;5.980;2023-01-25T02:08:40;103652.25;;;1.66;71.26
69574;BME280;62840;52.366;5.980;2023-01-25T02:11:06;103648.72;;;1.67;71.42
69574;BME280;62840;52.366;5.980;2023-01-25T02:13:36;103643.47;;;1.64;71.24
69574;BME280;62840;52.366;5.980;2023-01-25T02:16:03;103645.22;;;1.65;71.43
69574;BME280;62840;52.366;5.980;2023-01-25T02:18:30;103647.81;;;1.63;71.25
69574;BME280;62840;52.366;5.980;2023-01-25T02:20:58;103650.47;;;1.62;70.87
69574;BME280;62840;52.366;5.980;2023-01-25T02:23:34;103651.38;;;1.59;70.71
69574;BME280;62840;52.366;5.980;2023-01-25T02:26:09;103640.84;;;1.55;70.91
69574;BME280;62840;52.366;5.980;2023-01-25T02:28:38;103639.09;;;1.55;71.06
69574;BME280;62840;52.366;5.980;2023-01-25T02:31:08;103641.69;;;1.54;71.17
69574;BME280;62840;52.366;5.980;2023-01-25T02:33:34;103639.97;;;1.53;71.11
69574;BME280;62840;52.366;5.980;2023-01-25T02:36:18;103640.81;;;1.52;70.74
69574;BME280;62840;52.366;5.980;2023-01-25T04:25:02;103547.06;;;1.32;71.20
69574;BME280;62840;52.366;5.980;2023-01-25T04:27:28;103548.81;;;1.30;71.39
69574;BME280;62840;52.366;5.980;2023-01-25T04:29:54;103548.81;;;1.30;71.25
69574;BME280;62840;52.366;5.980;2023-01-25T04:32:21;103546.19;;;1.30;71.51
69574;BME280;62840;52.366;5.980;2023-01-25T04:34:47;103538.28;;;1.30;71.25
69574;BME280;62840;52.366;5.980;2023-01-25T04:37:12;103535.66;;;1.30;71.29
69574;BME280;62840;52.366;5.980;2023-01-25T04:39:38;103533.91;;;1.27;71.35
69574;BME280;62840;52.366;5.980;2023-01-25T04:42:07;103538.28;;;1.27;71.17
69574;BME280;62840;52.366;5.980;2023-01-25T04:44:32;103545.28;;;1.22;71.11
69574;BME280;62840;52.366;5.980;2023-01-25T04:46:58;103536.50;;;1.18;71.32
69574;BME280;62840;52.366;5.980;2023-01-25T04:49:24;103540.91;;;1.18;71.14
69574;BME280;62840;52.366;5.980;2023-01-25T04:51:50;103548.78;;;1.18;71.28
69574;BME280;62840;52.366;5.980;2023-01-25T04:54:15;103534.75;;;1.16;71.31
69574;BME280;62840;52.366;5.980;2023-01-25T04:56:41;103544.41;;;1.14;71.35
69574;BME280;62840;52.366;5.980;2023-01-25T04:59:09;103534.78;;;1.13;71.23
69574;BME280;62840;52.366;5.980;2023-01-25T05:01:35;103544.41;;;1.12;71.28
69574;BME280;62840;52.366;5.980;2023-01-25T05:04:01;103539.16;;;1.12;70.93
69574;BME280;62840;52.366;5.980;2023-01-25T05:06:30;103539.16;;;1.12;71.47
69574;BME280;62840;52.366;5.980;2023-01-25T05:08:55;103535.66;;;1.13;71.33
69574;BME280;62840;52.366;5.980;2023-01-25T05:11:21;103533.00;;;1.12;71.21
69574;BME280;62840;52.366;5.980;2023-01-25T05:13:47;103523.38;;;1.09;71.37
69574;BME280;62840;52.366;5.980;2023-01-25T05:16:15;103531.28;;;1.11;71.46
69574;BME280;62840;52.366;5.980;2023-01-25T05:18:43;103524.28;;;1.10;71.35
69574;BME280;62840;52.366;5.980;2023-01-25T05:21:09;103527.75;;;1.08;71.35
69574;BME280;62840;52.366;5.980;2023-01-25T05:23:34;103527.75;;;1.08;71.51
69574;BME280;62840;52.366;5.980;2023-01-25T05:26:00;103525.16;;;1.10;71.56
69574;BME280;62840;52.366;5.980;2023-01-25T05:28:26;103523.41;;;1.12;71.37
69574;BME280;62840;52.366;5.980;2023-01-25T05:30:52;103513.75;;;1.10;71.29
69574;BME280;62840;52.366;5.980;2023-01-25T05:33:20;103513.75;;;1.10;71.16
69574;BME280;62840;52.366;5.980;2023-01-25T05:35:46;103511.09;;;1.06;71.23
69574;BME280;62840;52.366;5.980;2023-01-25T05:38:11;103511.09;;;1.06;71.38
69574;BME280;62840;52.366;5.980;2023-01-25T05:40:37;103520.75;;;1.07;71.40
69574;BME280;62840;52.366;5.980;2023-01-25T05:43:03;103516.38;;;1.03;71.28
69574;BME280;62840;52.366;5.980;2023-01-25T05:45:29;103513.75;;;1.03;71.80
69574;BME280;62840;52.366;5.980;2023-01-25T05:47:55;103524.25;;;1.03;71.26
69574;BME280;62840;52.366;5.980;2023-01-25T05:50:25;103517.22;;;0.98;71.34
69574;BME280;62840;52.366;5.980;2023-01-25T05:52:51;103522.50;;;0.96;71.45
69574;BME280;62840;52.366;5.980;2023-01-25T05:55:17;103530.41;;;0.96;71.39
69574;BME280;62840;52.366;5.980;2023-01-25T05:57:43;103534.75;;;0.97;71.61
69574;BME280;62840;52.366;5.980;2023-01-25T06:00:10;103534.75;;;0.97;71.52
69574;BME280;62840;52.366;5.980;2023-01-25T06:02:36;103529.50;;;0.93;70.87
69574;BME280;62840;52.366;5.980;2023-01-25T06:05:02;103526.88;;;0.88;71.08
69574;BME280;62840;52.366;5.980;2023-01-25T06:07:35;103524.25;;;0.88;71.21
69574;BME280;62840;52.366;5.980;2023-01-25T06:10:01;103528.63;;;0.87;71.36
69574;BME280;62840;52.366;5.980;2023-01-25T06:12:27;103524.25;;;0.88;71.54
69574;BME280;62840;52.366;5.980;2023-01-25T06:14:53;103525.97;;;0.89;71.38
69574;BME280;62840;52.366;5.980;2023-01-25T06:17:18;103526.00;;;0.91;71.54
69574;BME280;62840;52.366;5.980;2023-01-25T06:19:44;103533.00;;;0.87;71.16
69574;BME280;62840;52.366;5.980;2023-01-25T06:22:10;103520.72;;;0.86;71.14
69574;BME280;62840;52.366;5.980;2023-01-25T06:24:38;103530.38;;;0.87;71.42
69574;BME280;62840;52.366;5.980;2023-01-25T06:27:04;103526.00;;;0.86;71.58
69574;BME280;62840;52.366;5.980;2023-01-25T06:29:30;103525.97;;;0.89;71.62
69574;BME280;62840;52.366;5.980;2023-01-25T06:31:55;103523.38;;;0.87;71.34
69574;BME280;62840;52.366;5.980;2023-01-25T06:34:21;103520.72;;;0.86;71.47
69574;BME280;62840;52.366;5.980;2023-01-25T06:36:47;103522.50;;;0.81;71.29
69574;BME280;62840;52.366;5.980;2023-01-25T06:39:13;103539.13;;;0.81;71.56
69574;BME280;62840;52.366;5.980;2023-01-25T06:41:41;103529.47;;;0.82;71.42
69574;BME280;62840;52.366;5.980;2023-01-25T06:44:07;103525.09;;;0.84;71.59
69574;BME280;62840;52.366;5.980;2023-01-25T06:46:33;103520.75;;;0.83;71.50
69574;BME280;62840;52.366;5.980;2023-01-25T06:48:59;103523.34;;;0.84;71.69
69574;BME280;62840;52.366;5.980;2023-01-25T06:51:25;103525.09;;;0.84;71.30
69574;BME280;62840;52.366;5.980;2023-01-25T06:53:51;103522.50;;;0.81;71.19
69574;BME280;62840;52.366;5.980;2023-01-25T06:56:18;103522.50;;;0.81;71.41
69574;BME280;62840;52.366;5.980;2023-01-25T06:58:48;103521.63;;;0.80;71.43
69574;BME280;62840;52.366;5.980;2023-01-25T07:01:16;103518.97;;;0.79;71.66
69574;BME280;62840;52.366;5.980;2023-01-25T07:03:46;103526.88;;;0.80;71.74
69574;BME280;62840;52.366;5.980;2023-01-25T07:06:12;103521.59;;;0.82;71.68
69574;BME280;62840;52.366;5.980;2023-01-25T07:08:38;103521.59;;;0.79;71.50
69574;BME280;62840;52.366;5.980;2023-01-25T07:11:05;103516.34;;;0.77;71.46
69574;BME280;62840;52.366;5.980;2023-01-25T07:13:35;103511.97;;;0.75;71.56
69574;BME280;62840;52.366;5.980;2023-01-25T07:16:05;103519.00;;;0.76;71.60
69574;BME280;62840;52.366;5.980;2023-01-25T07:18:33;103504.09;;;0.75;71.53
69574;BME280;62840;52.366;5.980;2023-01-25T07:21:03;103511.09;;;0.76;71.29
69574;BME280;62840;52.366;5.980;2023-01-25T07:23:31;103497.97;;;0.76;71.49
69574;BME280;62840;52.366;5.980;2023-01-25T07:25:58;103504.97;;;0.77;71.51
69574;BME280;62840;52.366;5.980;2023-01-25T07:28:26;103501.47;;;0.75;71.56
69574;BME280;62840;52.366;5.980;2023-01-25T07:30:52;103499.72;;;0.74;71.53
69574;BME280;62840;52.366;5.980;2023-01-25T07:33:20;103499.69;;;0.75;71.54
69574;BME280;62840;52.366;5.980;2023-01-25T07:35:46;103500.59;;;0.76;71.62
69574;BME280;62840;52.366;5.980;2023-01-25T07:38:12;103496.19;;;0.75;71.72
69574;BME280;62840;52.366;5.980;2023-01-25T07:40:37;103497.09;;;0.72;71.70
69574;BME280;62840;52.366;5.980;2023-01-25T07:43:03;103492.69;;;0.70;71.47
69574;BME280;62840;52.366;5.980;2023-01-25T07:45:29;103486.59;;;0.69;71.73
69574;BME280;62840;52.366;5.980;2023-01-25T07:47:56;103487.44;;;0.66;71.59
69574;BME280;62840;52.366;5.980;2023-01-25T07:50:25;103485.69;;;0.65;71.69
69574;BME280;62840;52.366;5.980;2023-01-25T07:52:52;103490.03;;;0.62;71.57
69574;BME280;62840;52.366;5.980;2023-01-25T07:55:18;103488.31;;;0.56;71.68
69574;BME280;62840;52.366;5.980;2023-01-25T07:57:44;103489.16;;;0.55;71.67
69574;BME280;62840;52.366;5.980;2023-01-25T08:00:12;103489.16;;;0.52;71.58
69574;BME280;62840;52.366;5.980;2023-01-25T08:02:38;103487.44;;;0.51;71.85
69574;BME280;62840;52.366;5.980;2023-01-25T08:05:05;103490.91;;;0.52;71.87
69574;BME280;62840;52.366;5.980;2023-01-25T08:07:33;103489.16;;;0.52;71.85
69574;BME280;62840;52.366;5.980;2023-01-25T08:09:59;103492.69;;;0.51;71.90
69574;BME280;62840;52.366;5.980;2023-01-25T08:12:25;103480.41;;;0.50;71.45
69574;BME280;62840;52.366;5.980;2023-01-25T08:14:50;103483.00;;;0.49;71.70
69574;BME280;62840;52.366;5.980;2023-01-25T08:17:16;103482.16;;;0.48;71.47
69574;BME280;62840;52.366;5.980;2023-01-25T08:19:42;103473.38;;;0.46;71.80
69574;BME280;62840;52.366;5.980;2023-01-25T08:22:08;103483.00;;;0.49;71.87
69574;BME280;62840;52.366;5.980;2023-01-25T08:24:36;103473.41;;;0.49;71.58
69574;BME280;62840;52.366;5.980;2023-01-25T08:27:02;103476.03;;;0.49;71.66
69574;BME280;62840;52.366;5.980;2023-01-25T08:29:28;103471.66;;;0.48;71.82
69574;BME280;62840;52.366;5.980;2023-01-25T08:31:54;103471.66;;;0.51;71.93
69574;BME280;62840;52.366;5.980;2023-01-25T08:34:19;103467.28;;;0.52;71.98
69574;BME280;62840;52.366;5.980;2023-01-25T08:36:45;103473.41;;;0.52;71.98
69574;BME280;62840;52.366;5.980;2023-01-25T08:39:11;103460.28;;;0.52;71.70
69574;BME280;62840;52.366;5.980;2023-01-25T08:41:39;103469.94;;;0.53;71.87
69574;BME280;62840;52.366;5.980;2023-01-25T08:44:05;103475.19;;;0.53;71.91
69574;BME280;62840;52.366;5.980;2023-01-25T08:46:32;103464.69;;;0.53;71.98
69574;BME280;62840;52.366;5.980;2023-01-25T08:48:59;103469.03;;;0.53;71.58
69574;BME280;62840;52.366;5.980;2023-01-25T08:51:26;103461.16;;;0.51;72.06
69574;BME280;62840;52.366;5.980;2023-01-25T08:53:52;103467.28;;;0.52;71.81
69574;BME280;62840;52.366;5.980;2023-01-25T08:56:19;103461.16;;;0.51;71.53
69574;BME280;62840;52.366;5.980;2023-01-25T08:58:49;103456.78;;;0.50;71.71
69574;BME280;62840;52.366;5.980;2023-01-25T09:01:16;103456.75;;;0.49;71.92
69574;BME280;62840;52.366;5.980;2023-01-25T09:03:44;103454.16;;;0.47;71.60
69574;BME280;62840;52.366;5.980;2023-01-25T09:06:11;103455.00;;;0.46;71.81
69574;BME280;62840;52.366;5.980;2023-01-25T09:08:37;103441.88;;;0.46;71.71
69574;BME280;62840;52.366;5.980;2023-01-25T09:11:05;103441.88;;;0.46;71.90
69574;BME280;62840;52.366;5.980;2023-01-25T09:13:32;103436.63;;;0.46;71.88
69574;BME280;62840;52.366;5.980;2023-01-25T09:16:02;103435.75;;;0.45;71.88
69574;BME280;62840;52.366;5.980;2023-01-25T09:18:30;103433.16;;;0.47;72.00
69574;BME280;62840;52.366;5.980;2023-01-25T09:20:58;103427.91;;;0.47;71.85
69574;BME280;62840;52.366;5.980;2023-01-25T09:23:24;103424.38;;;0.48;71.90
69574;BME280;62840;52.366;5.980;2023-01-25T09:25:55;103422.66;;;0.47;71.63
69574;BME280;62840;52.366;5.980;2023-01-25T09:28:21;103425.28;;;0.47;72.12
69574;BME280;62840;52.366;5.980;2023-01-25T09:30:53;103425.28;;;0.50;72.14
69574;BME280;62840;52.366;5.980;2023-01-25T09:33:23;103416.50;;;0.53;72.09
69574;BME280;62840;52.366;5.980;2023-01-25T09:35:49;103424.41;;;0.54;72.00
69574;BME280;62840;52.366;5.980;2023-01-25T09:38:15;103432.28;;;0.56;71.97
69574;BME280;62840;52.366;5.980;2023-01-25T09:40:44;103412.16;;;0.56;72.02
69574;BME280;62840;52.366;5.980;2023-01-25T09:43:31;103415.66;;;0.57;71.71
69574;BME280;62840;52.366;5.980;2023-01-25T09:46:12;103426.13;;;0.55;71.78
69574;BME280;62840;52.366;5.980;2023-01-25T09:48:57;103427.91;;;0.56;71.98
69574;BME280;62840;52.366;5.980;2023-01-25T09:51:48;103427.91;;;0.59;72.14
69574;BME280;62840;52.366;5.980;2023-01-25T09:54:26;103417.41;;;0.59;72.16
69574;BME280;62840;52.366;5.980;2023-01-25T09:56:57;103413.91;;;0.60;71.84
69574;BME280;62840;52.366;5.980;2023-01-25T09:59:25;103414.78;;;0.59;71.93
69574;BME280;62840;52.366;5.980;2023-01-25T10:01:56;103414.78;;;0.61;72.17
69574;BME280;62840;52.366;5.980;2023-01-25T10:04:34;103423.53;;;0.63;72.20
69574;BME280;62840;52.366;5.980;2023-01-25T10:07:13;103414.78;;;0.64;72.15
69574;BME280;62840;52.366;5.980;2023-01-25T10:09:49;103408.63;;;0.66;71.99
69574;BME280;62840;52.366;5.980;2023-01-25T10:12:23;103403.38;;;0.66;71.96
69574;BME280;62840;52.366;5.980;2023-01-25T10:14:53;103404.25;;;0.69;72.02
69574;BME280;62840;52.366;5.980;2023-01-25T10:17:25;103390.28;;;0.68;71.85
69574;BME280;62840;52.366;5.980;2023-01-25T10:20:14;103394.66;;;0.67;71.81
69574;BME280;62840;52.366;5.980;2023-01-25T10:22:54;103402.53;;;0.67;71.82
69574;BME280;62840;52.366;5.980;2023-01-25T10:25:35;103392.91;;;0.63;71.77
69574;BME280;62840;52.366;5.980;2023-01-25T10:28:28;103382.41;;;0.60;71.71
69574;BME280;62840;52.366;5.980;2023-01-25T10:31:04;103370.13;;;0.59;71.87
69574;BME280;62840;52.366;5.980;2023-01-25T10:33:38;103366.66;;;0.60;71.80
69574;BME280;62840;52.366;5.980;2023-01-25T10:36:13;103358.75;;;0.62;71.84
69574;BME280;62840;52.366;5.980;2023-01-25T10:38:41;103354.38;;;0.61;71.44
69574;BME280;62840;52.366;5.980;2023-01-25T10:41:12;103351.75;;;0.56;71.34
69574;BME280;62840;52.366;5.980;2023-01-25T10:43:44;103357.88;;;0.55;71.65
69574;BME280;62840;52.366;5.980;2023-01-25T10:46:17;103350.91;;;0.51;71.46
69574;BME280;62840;52.366;5.980;2023-01-25T10:48:46;103340.41;;;0.51;71.56
69574;BME280;62840;52.366;5.980;2023-01-25T10:51:31;103335.13;;;0.54;71.76
69574;BME280;62840;52.366;5.980;2023-01-25T10:54:00;103337.75;;;0.56;71.85
69574;BME280;62840;52.366;5.980;2023-01-25T10:56:28;103331.63;;;0.57;72.09
69574;BME280;62840;52.366;5.980;2023-01-25T10:59:14;103333.38;;;0.59;71.85
69574;BME280;62840;52.366;5.980;2023-01-25T11:01:43;103324.63;;;0.60;71.92
69574;BME280;62840;52.366;5.980;2023-01-25T11:04:23;103326.38;;;0.61;71.78
69574;BME280;62840;52.366;5.980;2023-01-25T11:06:56;103317.63;;;0.59;71.97
69574;BME280;62840;52.366;5.980;2023-01-25T11:09:35;103301.88;;;0.62;72.06
69574;BME280;62840;52.366;5.980;2023-01-25T11:12:04;103293.09;;;0.63;71.89
69574;BME280;62840;52.366;5.980;2023-01-25T11:14:40;103279.97;;;0.65;71.86
69574;BME280;62840;52.366;5.980;2023-01-25T11:17:21;103279.97;;;0.63;71.76
69574;BME280;62840;52.366;5.980;2023-01-25T11:20:04;103287.84;;;0.57;71.67
69574;BME280;62840;52.366;5.980;2023-01-25T11:22:48;103275.63;;;0.53;71.67
69574;BME280;62840;52.366;5.980;2023-01-25T11:25:24;103273.84;;;0.55;71.84
69574;BME280;62840;52.366;5.980;2023-01-25T11:28:09;103258.13;;;0.58;72.00
69574;BME280;62840;52.366;5.980;2023-01-25T11:30:36;103258.13;;;0.58;71.85
69574;BME280;62840;52.366;5.980;2023-01-25T11:33:02;103256.38;;;0.60;72.08
69574;BME280;62840;52.366;5.980;2023-01-25T11:35:34;103242.34;;;0.61;71.97
69574;BME280;62840;52.366;5.980;2023-01-25T11:38:12;103234.47;;;0.63;71.93
69574;BME280;62840;52.366;5.980;2023-01-25T11:40:46;103227.47;;;0.63;71.97
69574;BME280;62840;52.366;5.980;2023-01-25T11:43:23;103224.81;;;0.66;71.69
69574;BME280;62840;52.366;5.980;2023-01-25T11:46:15;103219.59;;;0.60;71.71
69574;BME280;62840;52.366;5.980;2023-01-25T11:49:02;103209.09;;;0.60;71.90
69574;BME280;62840;52.366;5.980;2023-01-25T11:51:43;103211.72;;;0.57;71.91
69574;BME280;62840;52.366;5.980;2023-01-25T11:54:44;103209.09;;;0.57;71.97
69574;BME280;62840;52.366;5.980;2023-01-25T11:57:44;103188.09;;;0.57;71.91
69574;BME280;62840;52.366;5.980;2023-01-25T12:00:34;103177.59;;;0.54;72.02
69574;BME280;62840;52.366;5.980;2023-01-25T12:03:41;103163.56;;;0.55;72.05
69574;BME280;62840;52.366;5.980;2023-01-25T12:06:35;103156.59;;;0.54;71.99
69574;BME280;62840;52.366;5.980;2023-01-25T12:09:24;103155.69;;;0.55;71.87
69574;BME280;62840;52.366;5.980;2023-01-25T12:12:12;103147.84;;;0.52;71.98
69574;BME280;62840;52.366;5.980;2023-01-25T12:15:04;103137.31;;;0.55;71.83
69574;BME280;62840;52.366;5.980;2023-01-25T12:17:48;103139.97;;;0.57;72.13
69574;BME280;62840;52.366;5.980;2023-01-25T12:20:46;103122.47;;;0.56;71.91
69574;BME280;62840;52.366;5.980;2023-01-25T12:23:35;103130.34;;;0.54;71.90
69574;BME280;62840;52.366;5.980;2023-01-25T12:26:27;103132.06;;;0.55;72.24
69574;BME280;62840;52.366;5.980;2023-01-25T12:29:04;103120.72;;;0.58;72.18
69574;BME280;62840;52.366;5.980;2023-01-25T12:31:42;103109.31;;;0.57;72.06
69574;BME280;62840;52.366;5.980;2023-01-25T12:34:19;103116.31;;;0.55;71.70
69574;BME280;62840;52.366;5.980;2023-01-25T12:36:50;103111.06;;;0.55;71.96
69574;BME280;62840;52.366;5.980;2023-01-25T12:39:19;103112.84;;;0.56;71.86
69574;BME280;62840;52.366;5.980;2023-01-25T12:41:55;103109.34;;;0.56;71.98
69574;BME280;62840;52.366;5.980;2023-01-25T12:44:30;103102.31;;;0.55;71.84
69574;BME280;62840;52.366;5.980;2023-01-25T12:47:03;103100.56;;;0.55;72.11
69574;BME280;62840;52.366;5.980;2023-01-25T12:49:40;103099.72;;;0.56;71.89
69574;BME280;62840;52.366;5.980;2023-01-25T12:52:19;103083.06;;;0.60;72.04
69574;BME280;62840;52.366;5.980;2023-01-25T12:54:52;103079.53;;;0.61;71.93
69574;BME280;62840;52.366;5.980;2023-01-25T12:57:27;103075.16;;;0.62;71.85
69574;BME280;62840;52.366;5.980;2023-01-25T13:00:06;103072.53;;;0.63;72.13
69574;BME280;62840;52.366;5.980;2023-01-25T13:02:53;103060.28;;;0.65;72.23
69574;BME280;62840;52.366;5.980;2023-01-25T13:05:35;103052.41;;;0.67;72.08
69574;BME280;62840;52.366;5.980;2023-01-25T13:08:16;103038.38;;;0.70;71.89
69574;BME280;62840;52.366;5.980;2023-01-25T13:10:50;103042.72;;;0.71;71.94
69574;BME280;62840;52.366;5.980;2023-01-25T13:13:23;103045.38;;;0.69;71.71
69574;BME280;62840;52.366;5.980;2023-01-25T13:15:52;103044.50;;;0.65;71.84
69574;BME280;62840;52.366;5.980;2023-01-25T13:21:37;103045.41;;;0.64;71.83
69574;BME280;62840;52.366;5.980;2023-01-25T13:24:16;103034.03;;;0.62;71.72
69574;BME280;62840;52.366;5.980;2023-01-25T13:27:03;103039.28;;;0.59;71.88
69574;BME280;62840;52.366;5.980;2023-01-25T13:29:56;103033.16;;;0.57;71.87
69574;BME280;62840;52.366;5.980;2023-01-25T13:35:31;103031.44;;;0.56;71.84
69574;BME280;62840;52.366;5.980;2023-01-25T13:38:05;103041.03;;;0.57;71.89
69574;BME280;62840;52.366;5.980;2023-01-25T13:41:10;103026.19;;;0.56;71.85
69574;BME280;62840;52.366;5.980;2023-01-25T13:43:44;103024.47;;;0.54;72.13
69574;BME280;62840;52.366;5.980;2023-01-25T13:46:17;103006.09;;;0.54;71.92
69574;BME280;62840;52.366;5.980;2023-01-25T13:49:00;103017.41;;;0.60;72.08
69574;BME280;62840;52.366;5.980;2023-01-25T13:51:33;103007.78;;;0.62;71.96
69574;BME280;62840;52.366;5.980;2023-01-25T13:54:03;103009.53;;;0.60;71.76
69574;BME280;62840;52.366;5.980;2023-01-25T13:56:31;103009.53;;;0.60;71.93
69574;BME280;62840;52.366;5.980;2023-01-25T13:58:58;103004.28;;;0.60;71.88
69574;BME280;62840;52.366;5.980;2023-01-25T14:01:29;102987.69;;;0.57;71.71
69574;BME280;62840;52.366;5.980;2023-01-25T14:03:57;102999.06;;;0.56;71.79
69574;BME280;62840;52.366;5.980;2023-01-25T14:06:27;102997.34;;;0.53;71.62
69574;BME280;62840;52.366;5.980;2023-01-25T14:08:57;102990.31;;;0.52;71.86
69574;BME280;62840;52.366;5.980;2023-01-25T14:11:28;102985.06;;;0.52;71.72
69574;BME280;62840;52.366;5.980;2023-01-25T14:13:58;102985.09;;;0.49;71.80
69574;BME280;62840;52.366;5.980;2023-01-25T14:16:28;102976.38;;;0.47;71.59
69574;BME280;62840;52.366;5.980;2023-01-25T14:19:07;102979.84;;;0.46;71.84
69574;BME280;62840;52.366;5.980;2023-01-25T14:21:47;102983.41;;;0.42;71.57
69574;BME280;62840;52.366;5.980;2023-01-25T14:24:16;102976.41;;;0.41;71.72
69574;BME280;62840;52.366;5.980;2023-01-25T14:26:43;102984.28;;;0.42;72.10
69574;BME280;62840;52.366;5.980;2023-01-25T14:29:16;102974.63;;;0.43;71.78
69574;BME280;62840;52.366;5.980;2023-01-25T14:31:49;102980.75;;;0.43;71.83
69574;BME280;62840;52.366;5.980;2023-01-25T14:34:17;102982.50;;;0.43;71.91
69574;BME280;62840;52.366;5.980;2023-01-25T14:36:44;102986.91;;;0.41;71.77
69574;BME280;62840;52.366;5.980;2023-01-25T14:39:22;102981.66;;;0.39;71.92
69574;BME280;62840;52.366;5.980;2023-01-25T14:41:52;102982.50;;;0.41;71.97
69574;BME280;62840;52.366;5.980;2023-01-25T14:44:20;102979.91;;;0.40;71.95
69574;BME280;62840;52.366;5.980;2023-01-25T14:46:48;102977.28;;;0.38;72.01
69574;BME280;62840;52.366;5.980;2023-01-25T14:49:34;102988.66;;;0.39;72.11
69574;BME280;62840;52.366;5.980;2023-01-25T14:52:02;102983.41;;;0.39;71.92
69574;BME280;62840;52.366;5.980;2023-01-25T14:54:32;102979.03;;;0.39;71.98
69574;BME280;62840;52.366;5.980;2023-01-25T14:57:01;102985.16;;;0.40;72.09
69574;BME280;62840;52.366;5.980;2023-01-25T14:59:32;102982.53;;;0.40;71.90
69574;BME280;62840;52.366;5.980;2023-01-25T15:02:14;102979.91;;;0.40;71.75
69574;BME280;62840;52.366;5.980;2023-01-25T15:04:54;102974.66;;;0.40;71.72
69574;BME280;62840;52.366;5.980;2023-01-25T15:07:33;102976.41;;;0.38;71.87
69574;BME280;62840;52.366;5.980;2023-01-25T15:10:16;102975.53;;;0.37;72.05
69574;BME280;62840;52.366;5.980;2023-01-25T15:12:54;102975.53;;;0.39;72.20
69574;BME280;62840;52.366;5.980;2023-01-25T15:15:23;102976.41;;;0.38;72.01